Terminal Aerodrome Forecast
Issued by NWS Cleveland, OH

Home | Current Version | Previous Version | Graphics & Text | Print | Product List | Glossary On
Versions: 1 2 3 4 5 6 7 8 9 10 11 12 13 14
600
FTUS41 KCLE 211728
TAFMFD
TAF
KMFD 211728Z 2118/2218 18012KT P6SM BKN070
     FM212100 21010KT P6SM OVC050
     FM220200 20005KT P6SM OVC025
     FM220700 19003KT 3SM BR OVC008
     FM221400 22008KT 5SM BR OVC015=

USA.gov is the U.S. government's official web portal to all federal, state and local government web resources and services.